Time;durP1;ratioP1;P1;durP2;ratioP2;P2;SDS_P1;SDS_P2;PMS_P1;PMS_P2;Temp;Humidity;BMP_temperature;BMP_pressure;BME280_temperature;BME280_humidity;BME280_pressure;Samples;Min_cycle;Max_cycle;Signal;HPM_P1;HPM_P2
2021/03/17 00:01:15;;;;;;;5.80;3.93;;;4.30;99.90;;;;;;4878972;29;20919;-86
2021/03/17 00:03:42;;;;;;;5.23;4.30;;;4.40;99.90;;;;;;4875752;29;20796;-86
2021/03/17 00:06:09;;;;;;;6.03;4.70;;;4.30;99.90;;;;;;4878122;29;21081;-87
2021/03/17 00:08:34;;;;;;;5.97;4.10;;;4.20;99.90;;;;;;4876922;29;20540;-86
2021/03/17 00:11:00;;;;;;;4.83;4.33;;;4.20;99.90;;;;;;4873584;29;20496;-86
2021/03/17 00:13:27;;;;;;;4.90;4.47;;;4.20;99.90;;;;;;4876459;29;20205;-87
2021/03/17 00:16:01;;;;;;;5.07;4.63;;;4.30;99.90;;;;;;4876157;29;20184;-87
2021/03/17 00:18:27;;;;;;;6.10;4.87;;;4.30;99.90;;;;;;4872045;29;20801;-86
2021/03/17 00:20:53;;;;;;;4.20;3.80;;;4.30;99.90;;;;;;4872442;29;20442;-86
2021/03/17 00:23:19;;;;;;;7.13;4.20;;;4.30;99.90;;;;;;4875096;29;20457;-87
2021/03/17 00:25:45;;;;;;;6.37;4.07;;;4.30;99.90;;;;;;4869148;29;20211;-86
2021/03/17 00:28:12;;;;;;;4.80;4.13;;;4.30;99.90;;;;;;4878925;29;20535;-87
2021/03/17 00:30:41;;;;;;;4.70;4.30;;;4.30;99.90;;;;;;4879813;29;20456;-87
2021/03/17 00:33:10;;;;;;;4.43;4.03;;;4.30;99.90;;;;;;4877456;29;20476;-86
2021/03/17 00:35:36;;;;;;;5.97;4.40;;;4.40;99.90;;;;;;4873949;29;20500;-87
2021/03/17 00:38:02;;;;;;;7.43;4.57;;;4.30;99.90;;;;;;4875787;29;20465;-86
2021/03/17 00:40:29;;;;;;;5.20;4.60;;;4.30;99.90;;;;;;4893409;29;20462;-87
2021/03/17 00:42:54;;;;;;;5.23;4.47;;;4.30;99.90;;;;;;4878338;29;20459;-87
2021/03/17 00:45:21;;;;;;;6.27;4.70;;;4.30;99.90;;;;;;4874711;29;20231;-86
2021/03/17 00:47:46;;;;;;;3.83;3.53;;;4.30;99.90;;;;;;4877042;29;20200;-87
2021/03/17 00:50:14;;;;;;;5.23;4.80;;;4.30;99.90;;;;;;4877685;29;20460;-87
2021/03/17 00:52:40;;;;;;;5.43;4.93;;;4.30;99.90;;;;;;4875708;29;20527;-87
2021/03/17 00:55:07;;;;;;;8.13;5.13;;;4.20;99.90;;;;;;4875041;29;20451;-86
2021/03/17 00:57:33;;;;;;;5.90;4.50;;;4.30;99.90;;;;;;4877833;29;20457;-86
2021/03/17 00:59:58;;;;;;;7.50;4.90;;;4.20;99.90;;;;;;4878069;29;20448;-86
2021/03/17 01:02:24;;;;;;;4.47;3.97;;;4.10;99.90;;;;;;4877305;29;20710;-86
2021/03/17 01:04:50;;;;;;;4.70;3.93;;;4.10;99.90;;;;;;4878562;29;20208;-86
2021/03/17 01:07:17;;;;;;;5.47;4.97;;;4.20;99.90;;;;;;4879468;29;20689;-86
2021/03/17 01:09:43;;;;;;;4.30;3.90;;;4.20;99.90;;;;;;4877545;29;20678;-86
2021/03/17 01:12:10;;;;;;;5.10;4.60;;;4.20;99.90;;;;;;4892032;29;20630;-86
2021/03/17 01:14:37;;;;;;;4.40;3.93;;;4.20;99.90;;;;;;4874868;29;20958;-86
2021/03/17 01:17:04;;;;;;;5.77;4.70;;;4.20;99.90;;;;;;4877411;29;21501;-85
2021/03/17 01:19:33;;;;;;;5.30;4.80;;;4.10;99.90;;;;;;4882848;29;20452;-86
2021/03/17 01:21:59;;;;;;;5.80;3.80;;;4.10;99.90;;;;;;4877717;29;20471;-86
2021/03/17 01:24:25;;;;;;;6.93;5.60;;;4.10;99.90;;;;;;4884560;29;20445;-86
2021/03/17 01:26:51;;;;;;;7.00;5.37;;;4.10;99.90;;;;;;4881936;29;20192;-86
2021/03/17 01:29:16;;;;;;;7.63;4.30;;;4.00;99.90;;;;;;4883938;29;20527;-87
2021/03/17 01:31:42;;;;;;;5.70;4.40;;;4.10;99.90;;;;;;4880195;29;20492;-87
2021/03/17 01:34:08;;;;;;;5.70;4.70;;;4.10;99.90;;;;;;4883280;29;20189;-87
2021/03/17 01:36:33;;;;;;;4.77;4.37;;;4.10;99.90;;;;;;4884713;29;20612;-86
2021/03/17 01:53:14;;;;;;;6.73;4.50;;;4.10;99.90;;;;;;4897204;29;20616;-85
2021/03/17 01:55:41;;;;;;;6.63;4.20;;;4.10;99.90;;;;;;4867753;29;20562;-86
2021/03/17 01:58:07;;;;;;;5.17;4.50;;;4.10;99.90;;;;;;4877043;29;20459;-86
2021/03/17 02:00:34;;;;;;;5.20;4.70;;;4.10;99.90;;;;;;4876772;29;20539;-86
2021/03/17 02:03:00;;;;;;;4.83;4.40;;;4.10;99.90;;;;;;4875879;29;20852;-86
2021/03/17 02:05:35;;;;;;;4.50;4.10;;;4.10;99.90;;;;;;4876136;29;20977;-86
2021/03/17 02:08:05;;;;;;;4.17;3.77;;;4.10;99.90;;;;;;4876238;29;20467;-86
2021/03/17 02:10:31;;;;;;;6.80;4.63;;;4.10;99.90;;;;;;4871649;29;20465;-85
2021/03/17 02:13:38;;;;;;;4.03;3.70;;;4.00;99.90;;;;;;4875805;29;21004;-85
2021/03/17 02:16:18;;;;;;;4.83;4.20;;;4.00;99.90;;;;;;4868675;29;20196;-85
2021/03/17 02:18:56;;;;;;;5.23;4.00;;;4.10;99.90;;;;;;4878379;29;20465;-86
2021/03/17 02:21:40;;;;;;;6.33;4.37;;;4.00;99.90;;;;;;4882990;29;20448;-86
2021/03/17 02:24:06;;;;;;;5.57;4.47;;;3.90;99.90;;;;;;4891678;29;20550;-85
2021/03/17 02:26:56;;;;;;;5.13;4.50;;;3.90;99.90;;;;;;4881150;29;20479;-87
2021/03/17 02:29:44;;;;;;;5.40;4.30;;;3.90;99.90;;;;;;4879359;29;20275;-87
2021/03/17 02:32:35;;;;;;;7.00;5.00;;;4.00;99.90;;;;;;4882913;29;20484;-87
2021/03/17 02:35:05;;;;;;;4.40;3.87;;;4.00;99.90;;;;;;4875239;29;20849;-87
2021/03/17 02:37:32;;;;;;;5.30;3.50;;;4.00;99.90;;;;;;4878305;29;21058;-86
2021/03/17 02:40:08;;;;;;;4.53;4.00;;;4.00;99.90;;;;;;4881630;29;20459;-86
2021/03/17 02:42:37;;;;;;;4.40;3.93;;;4.00;99.90;;;;;;4878922;29;20465;-86
2021/03/17 02:45:05;;;;;;;4.60;3.90;;;3.90;99.90;;;;;;4877657;29;20445;-85
2021/03/17 02:47:35;;;;;;;6.73;4.67;;;4.00;99.90;;;;;;4879532;29;20487;-85
2021/03/17 02:50:03;;;;;;;6.23;4.77;;;3.90;99.90;;;;;;4892966;29;20549;-86
2021/03/17 02:52:35;;;;;;;5.20;4.30;;;3.80;99.90;;;;;;4885843;29;20508;-85
2021/03/17 02:55:03;;;;;;;6.03;4.73;;;3.80;99.90;;;;;;4878081;29;20454;-85
2021/03/17 02:57:33;;;;;;;5.23;4.57;;;3.80;99.90;;;;;;4878197;29;20453;-85
2021/03/17 03:00:00;;;;;;;5.10;3.97;;;3.80;99.90;;;;;;4876222;29;20488;-85
2021/03/17 03:02:27;;;;;;;4.73;4.20;;;3.80;99.90;;;;;;4876049;29;20477;-85
2021/03/17 03:04:54;;;;;;;4.90;3.90;;;3.80;99.90;;;;;;4881908;29;20453;-86
2021/03/17 03:07:23;;;;;;;4.00;3.60;;;3.90;99.90;;;;;;4890720;29;20457;-85
2021/03/17 03:09:52;;;;;;;4.90;4.00;;;3.80;99.90;;;;;;4876306;29;20449;-86
2021/03/17 03:12:19;;;;;;;6.53;4.47;;;3.80;99.90;;;;;;4879295;29;20477;-86
2021/03/17 03:14:45;;;;;;;5.00;4.20;;;3.70;99.90;;;;;;4876617;29;20461;-86
2021/03/17 03:17:13;;;;;;;3.90;3.47;;;3.80;99.90;;;;;;4895115;29;20718;-86
2021/03/17 03:19:47;;;;;;;4.73;4.30;;;3.80;99.90;;;;;;4881766;29;20494;-86
2021/03/17 03:22:13;;;;;;;4.83;4.13;;;3.80;99.90;;;;;;4875902;29;20555;-86
2021/03/17 03:24:41;;;;;;;4.30;3.73;;;3.80;99.90;;;;;;4884120;29;20453;-85
2021/03/17 03:27:08;;;;;;;4.37;3.83;;;3.80;99.90;;;;;;4876024;29;20448;-85
2021/03/17 03:29:34;;;;;;;3.93;3.53;;;3.70;99.90;;;;;;4884663;29;20433;-85
2021/03/17 03:32:02;;;;;;;6.80;4.00;;;3.70;99.90;;;;;;4877029;29;20573;-85
2021/03/17 03:34:28;;;;;;;5.17;4.20;;;3.80;99.90;;;;;;4881886;29;20471;-86
2021/03/17 03:36:55;;;;;;;4.77;4.17;;;3.90;99.90;;;;;;4880977;29;20978;-86
2021/03/17 03:39:20;;;;;;;4.03;3.63;;;3.90;99.90;;;;;;4895101;29;20204;-85
2021/03/17 03:41:46;;;;;;;5.30;4.00;;;3.90;99.90;;;;;;4878690;29;20437;-86
2021/03/17 03:44:12;;;;;;;4.40;4.00;;;3.90;99.90;;;;;;4877549;29;20678;-86
2021/03/17 03:46:38;;;;;;;5.17;4.20;;;3.80;99.90;;;;;;4897932;29;20228;-86
2021/03/17 03:49:05;;;;;;;4.90;3.40;;;3.70;99.90;;;;;;4879292;29;20640;-86
2021/03/17 03:51:33;;;;;;;4.60;4.07;;;3.70;99.90;;;;;;4878205;29;20485;-86
2021/03/17 03:54:27;;;;;;;5.50;4.37;;;3.80;99.90;;;;;;4875981;29;20442;-86
2021/03/17 03:57:17;;;;;;;4.50;4.10;;;3.80;99.90;;;;;;4891672;29;20445;-86
2021/03/17 03:59:47;;;;;;;5.30;4.80;;;3.80;99.90;;;;;;4871312;29;20514;-86
2021/03/17 04:02:27;;;;;;;4.80;4.37;;;3.70;99.90;;;;;;4882225;29;20491;-86
2021/03/17 04:04:55;;;;;;;6.00;4.40;;;3.70;99.90;;;;;;4894687;29;20446;-87
2021/03/17 04:07:23;;;;;;;5.30;4.20;;;3.70;99.90;;;;;;4876226;29;20861;-86
2021/03/17 04:09:55;;;;;;;5.27;4.20;;;3.80;99.90;;;;;;4873986;29;20547;-86
2021/03/17 04:12:22;;;;;;;4.90;4.40;;;3.80;99.90;;;;;;4878129;29;20506;-86
2021/03/17 04:14:52;;;;;;;8.20;5.40;;;3.90;99.90;;;;;;4878579;29;20538;-86
2021/03/17 04:17:52;;;;;;;6.50;5.20;;;3.90;99.90;;;;;;4881871;29;20880;-87
2021/03/17 04:20:43;;;;;;;6.00;5.30;;;3.90;99.90;;;;;;4887221;29;20814;-87
2021/03/17 04:23:15;;;;;;;6.23;5.07;;;3.90;99.90;;;;;;4877359;29;21011;-86
2021/03/17 04:25:47;;;;;;;5.97;5.30;;;3.90;99.90;;;;;;4881871;29;20457;-87
2021/03/17 04:28:16;;;;;;;7.17;5.00;;;3.90;99.90;;;;;;4880531;29;20549;-86
2021/03/17 04:30:43;;;;;;;6.03;5.33;;;3.90;99.90;;;;;;4880887;29;20497;-86
2021/03/17 04:33:10;;;;;;;6.67;5.33;;;3.90;99.90;;;;;;4869606;29;20499;-85
2021/03/17 04:35:36;;;;;;;7.47;5.80;;;3.90;99.90;;;;;;4880674;29;20608;-87
2021/03/17 04:38:02;;;;;;;7.70;6.03;;;3.90;99.90;;;;;;4875552;29;20535;-85
2021/03/17 04:40:29;;;;;;;6.90;6.20;;;3.90;99.90;;;;;;4872710;29;21164;-86
2021/03/17 04:42:56;;;;;;;7.53;5.83;;;3.90;99.90;;;;;;4877921;29;20460;-86
2021/03/17 04:45:24;;;;;;;8.90;6.40;;;3.90;99.90;;;;;;4870673;29;20476;-86
2021/03/17 04:47:53;;;;;;;7.80;6.60;;;4.00;99.90;;;;;;4879189;29;20441;-86
2021/03/17 04:50:19;;;;;;;7.77;6.13;;;3.90;99.90;;;;;;4889831;29;20450;-86
2021/03/17 04:52:46;;;;;;;9.23;6.30;;;3.90;99.90;;;;;;4893890;29;20490;-86
2021/03/17 04:55:16;;;;;;;7.53;6.23;;;3.90;99.90;;;;;;4874172;29;21339;-86
2021/03/17 04:57:43;;;;;;;8.17;6.70;;;3.90;99.90;;;;;;4880894;29;20826;-86
2021/03/17 05:00:12;;;;;;;7.40;6.17;;;4.00;99.90;;;;;;4877955;29;20454;-86
2021/03/17 05:02:42;;;;;;;11.93;6.00;;;4.10;99.90;;;;;;4880989;29;20535;-85
2021/03/17 05:05:10;;;;;;;8.43;6.83;;;4.00;99.90;;;;;;4878188;29;21266;-86
2021/03/17 05:07:39;;;;;;;9.30;7.60;;;3.90;99.90;;;;;;4876904;29;20504;-83
2021/03/17 05:10:09;;;;;;;8.27;6.80;;;4.00;99.90;;;;;;4891587;29;20454;-85
2021/03/17 05:12:37;;;;;;;9.77;7.27;;;4.00;99.90;;;;;;4874194;29;20487;-87
2021/03/17 05:15:04;;;;;;;7.77;6.83;;;3.90;99.90;;;;;;4875362;29;20726;-87
2021/03/17 05:17:32;;;;;;;10.87;7.63;;;3.90;99.90;;;;;;4881530;29;20456;-86
2021/03/17 05:19:58;;;;;;;8.63;7.37;;;3.90;99.90;;;;;;4888980;29;20573;-86
2021/03/17 05:22:24;;;;;;;9.40;8.10;;;3.90;99.90;;;;;;4878907;29;20938;-87
2021/03/17 05:24:51;;;;;;;9.50;8.20;;;3.90;99.90;;;;;;4874244;29;20552;-86
2021/03/17 05:27:21;;;;;;;8.27;7.00;;;3.90;99.90;;;;;;4898263;29;21042;-85
2021/03/17 05:29:49;;;;;;;12.70;8.60;;;3.90;99.90;;;;;;4877034;29;20829;-87
2021/03/17 05:32:15;;;;;;;8.63;7.20;;;3.90;99.90;;;;;;4884992;29;20503;-87
2021/03/17 05:35:08;;;;;;;11.70;8.40;;;3.90;99.90;;;;;;4878458;29;20457;-87
2021/03/17 05:37:34;;;;;;;10.10;8.37;;;3.90;99.90;;;;;;4883443;29;22024;-87
2021/03/17 05:40:00;;;;;;;11.10;9.57;;;4.00;99.90;;;;;;4877990;29;20486;-87
2021/03/17 05:42:26;;;;;;;11.50;9.70;;;4.00;99.90;;;;;;4881355;29;20513;-86
2021/03/17 05:44:54;;;;;;;9.87;8.70;;;4.00;99.90;;;;;;4884937;29;20460;-87
2021/03/17 05:47:30;;;;;;;10.40;9.30;;;4.00;99.90;;;;;;4883977;29;21002;-87
2021/03/17 05:49:57;;;;;;;11.87;9.90;;;3.90;99.90;;;;;;4863973;29;20476;-88
2021/03/17 05:52:24;;;;;;;13.23;9.33;;;3.90;99.90;;;;;;4884982;29;20543;-88
2021/03/17 05:54:51;;;;;;;11.87;9.57;;;3.90;99.90;;;;;;4883042;29;20471;-87
2021/03/17 05:57:17;;;;;;;13.70;10.60;;;4.00;99.90;;;;;;4882571;29;20973;-87
2021/03/17 05:59:43;;;;;;;12.90;10.83;;;4.00;99.90;;;;;;4874841;29;20443;-86
2021/03/17 06:02:38;;;;;;;13.53;9.97;;;3.90;99.90;;;;;;4881724;29;20465;-88
2021/03/17 06:05:05;;;;;;;13.90;11.50;;;4.00;99.90;;;;;;4882645;29;20210;-86
2021/03/17 06:07:52;;;;;;;13.37;11.07;;;4.00;99.90;;;;;;4869053;29;20452;-87
2021/03/17 06:10:22;;;;;;;13.33;11.50;;;3.90;99.90;;;;;;4885885;29;20508;-86
2021/03/17 06:12:51;;;;;;;14.60;10.80;;;3.90;99.90;;;;;;4880625;29;21512;-86
2021/03/17 06:15:22;;;;;;;14.33;10.93;;;4.00;99.90;;;;;;4884070;29;20857;-86
2021/03/17 06:17:54;;;;;;;13.40;10.37;;;4.00;99.90;;;;;;4879313;29;20612;-86
2021/03/17 06:20:20;;;;;;;16.37;11.30;;;4.00;99.90;;;;;;4878785;29;20449;-87
2021/03/17 06:22:46;;;;;;;13.30;11.13;;;4.00;99.90;;;;;;4881933;29;20455;-87
2021/03/17 06:25:15;;;;;;;16.60;11.87;;;4.00;99.90;;;;;;4882322;29;20575;-86
2021/03/17 06:27:42;;;;;;;15.63;12.00;;;3.90;99.90;;;;;;4884092;29;20678;-87
2021/03/17 06:30:12;;;;;;;14.80;11.90;;;3.90;99.90;;;;;;4878472;29;20540;-87
2021/03/17 06:32:38;;;;;;;17.80;12.30;;;3.90;99.90;;;;;;4879067;29;20508;-86
2021/03/17 06:35:16;;;;;;;14.90;11.27;;;4.00;99.90;;;;;;4877192;29;20469;-86
2021/03/17 06:37:42;;;;;;;15.53;12.70;;;4.00;99.90;;;;;;4873065;29;20208;-86
2021/03/17 06:40:31;;;;;;;14.37;12.50;;;4.10;99.90;;;;;;4879466;29;20464;-86
2021/03/17 06:43:08;;;;;;;15.67;12.30;;;4.10;99.90;;;;;;4863906;29;20222;-86
2021/03/17 06:45:47;;;;;;;17.40;12.47;;;4.20;99.90;;;;;;4881672;29;20447;-86
2021/03/17 06:48:21;;;;;;;19.37;13.97;;;4.20;99.90;;;;;;4874898;29;20666;-86
2021/03/17 06:51:06;;;;;;;19.90;13.43;;;4.00;99.90;;;;;;4880917;29;21688;-86
2021/03/17 06:53:43;;;;;;;15.80;12.37;;;4.00;99.90;;;;;;4881210;29;20498;-86
2021/03/17 06:56:20;;;;;;;15.80;11.70;;;4.10;99.90;;;;;;4892105;29;20915;-89
2021/03/17 06:58:56;;;;;;;18.30;13.47;;;4.10;99.90;;;;;;4871384;29;20464;-85
2021/03/17 07:01:40;;;;;;;15.53;11.57;;;4.00;99.90;;;;;;4868461;29;20455;-87
2021/03/17 07:09:58;;;;;;;16.30;12.77;;;4.00;99.90;;;;;;4884695;29;20475;-87
2021/03/17 07:12:37;;;;;;;13.50;11.07;;;4.00;99.90;;;;;;4866505;29;20482;-85
2021/03/17 07:15:12;;;;;;;14.37;11.77;;;3.90;99.90;;;;;;4859284;29;20553;-84
2021/03/17 07:17:37;;;;;;;18.50;12.60;;;4.00;99.90;;;;;;4857941;29;20458;-86
2021/03/17 07:20:36;;;;;;;18.40;13.00;;;4.00;99.90;;;;;;4856549;29;21022;-83
2021/03/17 07:23:25;;;;;;;16.53;11.70;;;4.00;99.90;;;;;;4872000;29;20803;-86
2021/03/17 07:26:20;;;;;;;20.00;13.50;;;4.10;99.90;;;;;;4858846;29;20457;-84
2021/03/17 07:29:01;;;;;;;18.30;12.63;;;4.30;99.90;;;;;;4856006;29;20552;-93
2021/03/17 07:31:38;;;;;;;20.07;13.60;;;4.40;99.90;;;;;;4860649;29;20460;-90
2021/03/17 07:34:12;;;;;;;17.27;14.00;;;4.50;99.90;;;;;;4859410;29;20461;-96
2021/03/17 07:36:59;;;;;;;19.00;13.87;;;4.60;99.90;;;;;;4890358;29;20976;-94
2021/03/17 07:39:36;;;;;;;18.40;13.30;;;4.60;99.90;;;;;;4861794;29;20545;-94
2021/03/17 07:42:05;;;;;;;19.43;12.93;;;4.60;99.90;;;;;;4863111;29;20461;-93
2021/03/17 07:44:32;;;;;;;18.23;13.70;;;4.70;99.90;;;;;;4876506;29;20496;-95
2021/03/17 07:47:00;;;;;;;18.10;12.70;;;4.80;99.90;;;;;;4872731;29;20457;-94
2021/03/17 07:49:28;;;;;;;21.50;13.83;;;4.70;99.90;;;;;;4855779;29;20441;-92
2021/03/17 07:51:56;;;;;;;22.07;15.00;;;4.90;99.90;;;;;;4856571;29;20469;-94
2021/03/17 07:54:35;;;;;;;20.20;13.20;;;4.80;99.90;;;;;;4872836;29;20924;-94
2021/03/17 07:57:02;;;;;;;20.10;12.33;;;5.00;99.90;;;;;;4858759;29;20472;-94
2021/03/17 07:59:29;;;;;;;16.07;11.37;;;5.00;99.90;;;;;;4862508;29;20457;-96
2021/03/17 08:01:57;;;;;;;17.40;12.20;;;5.10;99.90;;;;;;4864770;29;20571;-96
2021/03/17 08:04:29;;;;;;;13.97;11.37;;;5.10;99.90;;;;;;4864255;29;20457;-96
2021/03/17 08:06:56;;;;;;;15.20;11.27;;;5.20;99.90;;;;;;4878205;29;20456;-96
2021/03/17 08:09:28;;;;;;;14.97;12.43;;;5.30;99.90;;;;;;4867377;29;20512;-96
2021/03/17 08:11:57;;;;;;;14.70;11.10;;;5.40;99.90;;;;;;4881867;29;20883;-95
2021/03/17 08:14:25;;;;;;;15.10;11.87;;;5.50;99.90;;;;;;4865924;29;20570;-96
2021/03/17 08:17:05;;;;;;;16.20;12.03;;;5.50;99.90;;;;;;4869655;29;20546;-96
2021/03/17 08:19:31;;;;;;;14.83;10.60;;;5.50;99.90;;;;;;4862800;29;20450;-89
2021/03/17 08:22:02;;;;;;;12.93;9.67;;;5.50;99.90;;;;;;4854667;29;20848;-87
2021/03/17 08:24:33;;;;;;;15.47;11.87;;;5.30;99.90;;;;;;4856442;29;20197;-88
2021/03/17 08:27:20;;;;;;;15.23;11.30;;;5.40;99.90;;;;;;4853862;29;21079;-87
2021/03/17 08:29:49;;;;;;;15.30;10.30;;;5.20;99.90;;;;;;4854944;29;20472;-88
2021/03/17 08:32:17;;;;;;;13.77;10.30;;;5.40;99.90;;;;;;4865303;29;20489;-88
2021/03/17 08:34:53;;;;;;;14.23;10.57;;;5.50;99.90;;;;;;4849607;29;20477;-88
2021/03/17 08:37:19;;;;;;;14.93;10.03;;;5.60;99.90;;;;;;4849682;29;20453;-88
2021/03/17 08:39:47;;;;;;;14.07;9.50;;;5.80;99.90;;;;;;4852739;29;20533;-87
2021/03/17 08:42:31;;;;;;;10.73;8.77;;;6.10;99.90;;;;;;4854342;29;20212;-86
2021/03/17 08:44:59;;;;;;;12.50;10.10;;;6.50;99.90;;;;;;4851940;29;20525;-88
2021/03/17 08:47:30;;;;;;;14.10;10.23;;;6.70;99.90;;;;;;4852243;29;20461;-88
2021/03/17 08:49:57;;;;;;;12.90;9.60;;;6.90;99.90;;;;;;4853759;29;20478;-88
2021/03/17 08:52:41;;;;;;;11.97;9.40;;;7.40;99.90;;;;;;4848858;29;20934;-89
2021/03/17 08:55:12;;;;;;;10.07;8.10;;;7.70;99.90;;;;;;4858514;29;20464;-88
2021/03/17 08:57:55;;;;;;;12.37;11.07;;;8.00;99.90;;;;;;4871457;29;20445;-87
2021/03/17 09:00:47;;;;;;;9.20;7.80;;;8.40;99.90;;;;;;4874205;29;20442;-88
2021/03/17 09:03:31;;;;;;;12.40;8.73;;;8.80;99.90;;;;;;4878659;29;20453;-88
2021/03/17 09:06:18;;;;;;;8.73;7.63;;;9.00;99.90;;;;;;4861234;29;20598;-88
2021/03/17 09:09:04;;;;;;;8.93;6.20;;;8.80;99.90;;;;;;4856913;29;20512;-88
2021/03/17 09:11:29;;;;;;;7.67;6.87;;;9.10;99.90;;;;;;4856383;29;20472;-87
2021/03/17 09:14:01;;;;;;;9.00;6.83;;;9.20;99.90;;;;;;4860680;29;20475;-90
2021/03/17 09:16:28;;;;;;;7.60;6.70;;;9.10;99.90;;;;;;4872823;29;20184;-88
2021/03/17 09:19:17;;;;;;;10.90;6.97;;;8.60;99.90;;;;;;4862274;29;20457;-93
2021/03/17 09:22:01;;;;;;;6.20;5.63;;;8.50;99.90;;;;;;4864880;29;20449;-96
2021/03/17 09:24:34;;;;;;;6.33;5.43;;;8.70;99.90;;;;;;4868277;29;20449;-95
2021/03/17 09:27:04;;;;;;;7.00;6.13;;;8.80;99.90;;;;;;4871408;29;20460;-93
2021/03/17 09:29:46;;;;;;;8.47;6.00;;;9.00;99.90;;;;;;4871217;29;20562;-92
2021/03/17 09:32:11;;;;;;;6.70;4.20;;;8.90;98.80;;;;;;4854798;29;20759;-92
2021/03/17 09:34:46;;;;;;;6.13;5.20;;;8.60;97.00;;;;;;4858294;29;20482;-92
2021/03/17 09:37:12;;;;;;;5.13;4.63;;;8.40;97.10;;;;;;4842877;29;20192;-92
2021/03/17 09:39:47;;;;;;;4.83;4.23;;;8.10;97.90;;;;;;4858708;29;20457;-96
2021/03/17 09:42:17;;;;;;;5.50;4.57;;;8.10;99.20;;;;;;4861492;29;20491;-92
2021/03/17 09:44:43;;;;;;;4.80;4.30;;;8.20;97.90;;;;;;4861558;29;21091;-96
2021/03/17 09:47:09;;;;;;;4.87;3.67;;;8.30;98.00;;;;;;4866206;29;20465;-88
2021/03/17 09:49:36;;;;;;;6.10;5.50;;;9.10;96.70;;;;;;4855249;29;20193;-88
2021/03/17 09:52:03;;;;;;;7.03;5.80;;;9.60;95.50;;;;;;4856634;29;20475;-86
2021/03/17 09:54:31;;;;;;;6.77;5.53;;;10.20;97.00;;;;;;4854767;29;20473;-85
2021/03/17 09:56:58;;;;;;;6.10;4.20;;;9.80;93.60;;;;;;4856686;29;21275;-84
2021/03/17 09:59:38;;;;;;;7.17;5.23;;;8.30;96.70;;;;;;4870521;29;20452;-85
2021/03/17 10:02:10;;;;;;;5.60;5.00;;;7.50;97.90;;;;;;4855180;29;20461;-87
2021/03/17 10:04:43;;;;;;;4.70;4.20;;;7.40;97.90;;;;;;4854919;29;20801;-87
2021/03/17 10:07:11;;;;;;;4.40;3.80;;;7.10;98.30;;;;;;4855886;29;20818;-85
2021/03/17 10:09:37;;;;;;;4.90;3.33;;;7.30;99.50;;;;;;4876995;29;20566;-86
2021/03/17 10:12:10;;;;;;;3.50;3.20;;;7.60;96.30;;;;;;4857991;29;20504;-87
2021/03/17 10:14:39;;;;;;;4.70;3.53;;;8.10;97.40;;;;;;4855257;29;21128;-86
2021/03/17 10:17:07;;;;;;;4.03;3.50;;;8.70;95.40;;;;;;4857391;29;20445;-86
2021/03/17 10:19:36;;;;;;;2.43;2.23;;;8.70;94.90;;;;;;4859475;29;20449;-86
2021/03/17 10:22:03;;;;;;;2.50;2.30;;;8.70;94.60;;;;;;4860343;29;20543;-87
2021/03/17 10:24:42;;;;;;;3.20;2.40;;;8.50;93.30;;;;;;4856088;29;20487;-86
2021/03/17 10:27:11;;;;;;;4.50;2.37;;;8.00;92.70;;;;;;4874485;29;20970;-86
2021/03/17 10:29:38;;;;;;;2.27;2.07;;;7.60;94.30;;;;;;4873429;29;20520;-86
2021/03/17 10:32:06;;;;;;;2.87;2.37;;;7.80;94.90;;;;;;4857582;29;20477;-86
2021/03/17 10:34:31;;;;;;;3.10;2.17;;;7.90;94.10;;;;;;4858850;29;20785;-86
2021/03/17 10:36:58;;;;;;;2.57;2.10;;;8.40;93.90;;;;;;4859041;29;20469;-86
2021/03/17 10:39:26;;;;;;;3.70;3.20;;;9.00;91.20;;;;;;4857758;29;20594;-86
2021/03/17 10:41:52;;;;;;;4.70;3.37;;;9.00;90.70;;;;;;4860064;29;20461;-86
2021/03/17 10:44:21;;;;;;;4.60;3.23;;;8.70;91.30;;;;;;4860648;29;20460;-86
2021/03/17 10:46:58;;;;;;;4.13;3.73;;;8.10;93.20;;;;;;4857877;29;20452;-86
2021/03/17 10:49:24;;;;;;;10.37;3.50;;;8.30;95.20;;;;;;4855951;29;20477;-86
2021/03/17 10:51:51;;;;;;;6.30;5.20;;;8.40;94.70;;;;;;4862002;29;20473;-87
2021/03/17 10:54:53;;;;;;;4.27;3.90;;;8.30;95.00;;;;;;4857923;29;20204;-87
2021/03/17 10:57:24;;;;;;;3.53;3.03;;;8.40;94.10;;;;;;4872788;29;20450;-87
2021/03/17 10:59:50;;;;;;;3.67;3.37;;;8.40;93.00;;;;;;4857824;29;20448;-88
2021/03/17 11:02:28;;;;;;;5.23;3.20;;;8.20;93.20;;;;;;4873239;29;20938;-88
2021/03/17 11:05:07;;;;;;;3.60;3.00;;;8.30;94.90;;;;;;4857982;29;21014;-87
2021/03/17 11:07:51;;;;;;;4.67;3.13;;;8.60;94.70;;;;;;4857600;29;20497;-87
2021/03/17 11:10:32;;;;;;;3.83;3.03;;;9.00;94.80;;;;;;4855781;29;21032;-88
2021/03/17 11:13:24;;;;;;;6.23;3.20;;;9.10;94.90;;;;;;4858892;29;20593;-89
2021/03/17 11:15:58;;;;;;;4.53;3.80;;;9.70;97.50;;;;;;4882795;29;20446;-88
2021/03/17 11:18:27;;;;;;;5.67;4.23;;;10.40;96.20;;;;;;4866131;29;20950;-88
2021/03/17 11:21:00;;;;;;;5.20;4.20;;;10.40;95.30;;;;;;4868300;29;20453;-88
2021/03/17 11:23:42;;;;;;;5.37;4.40;;;10.20;94.80;;;;;;4866860;29;20527;-88
2021/03/17 11:26:22;;;;;;;5.40;4.53;;;10.10;94.50;;;;;;4876362;29;20690;-89
2021/03/17 11:28:49;;;;;;;4.63;3.97;;;9.50;96.10;;;;;;4866483;29;20488;-87
2021/03/17 11:31:28;;;;;;;4.30;3.90;;;8.50;99.50;;;;;;4876469;29;20453;-88
2021/03/17 11:33:56;;;;;;;7.03;3.90;;;8.10;99.90;;;;;;4850647;29;20474;-89
2021/03/17 11:36:24;;;;;;;5.53;4.03;;;7.90;99.90;;;;;;4864375;29;20544;-88
2021/03/17 11:38:50;;;;;;;5.13;4.33;;;7.60;99.90;;;;;;4879293;29;20460;-88
2021/03/17 11:41:19;;;;;;;6.20;4.83;;;7.40;99.90;;;;;;4864235;29;20453;-88
2021/03/17 11:43:49;;;;;;;4.47;3.73;;;7.30;99.90;;;;;;4863009;29;20511;-88
2021/03/17 11:46:17;;;;;;;4.30;3.90;;;7.30;99.90;;;;;;4873513;29;20456;-88
2021/03/17 11:48:45;;;;;;;6.10;3.53;;;7.20;99.90;;;;;;4866683;29;20454;-87
2021/03/17 11:51:11;;;;;;;4.30;3.70;;;7.10;99.90;;;;;;4868917;29;20461;-88
2021/03/17 11:53:37;;;;;;;3.73;3.43;;;6.90;99.90;;;;;;4880435;29;20567;-87
2021/03/17 11:56:06;;;;;;;3.90;3.30;;;6.80;99.90;;;;;;4864764;29;20452;-87
2021/03/17 11:58:33;;;;;;;3.43;3.13;;;6.70;99.90;;;;;;4863916;29;20241;-88
2021/03/17 12:00:59;;;;;;;3.17;2.87;;;6.60;99.90;;;;;;4863340;29;20447;-91
2021/03/17 12:03:25;;;;;;;4.80;3.57;;;6.60;99.90;;;;;;4864545;29;20969;-86
2021/03/17 12:05:51;;;;;;;4.50;3.77;;;6.60;99.90;;;;;;4860467;29;20481;-88
2021/03/17 12:08:17;;;;;;;3.90;3.20;;;6.50;99.90;;;;;;4864628;29;20335;-89
2021/03/17 12:10:43;;;;;;;4.70;3.53;;;6.50;99.90;;;;;;4862611;29;20864;-88
2021/03/17 12:13:09;;;;;;;4.73;4.10;;;6.30;99.90;;;;;;4864227;29;20220;-88
2021/03/17 12:15:36;;;;;;;5.70;4.00;;;6.20;99.90;;;;;;4879448;29;20446;-88
2021/03/17 12:18:02;;;;;;;4.63;3.60;;;6.10;99.90;;;;;;4861526;29;20814;-87
2021/03/17 12:20:29;;;;;;;6.10;3.67;;;6.20;99.90;;;;;;4858778;29;20442;-89
2021/03/17 12:22:55;;;;;;;6.13;4.17;;;6.10;99.90;;;;;;4879038;29;20453;-89
2021/03/17 12:25:21;;;;;;;5.87;3.87;;;6.00;99.90;;;;;;4863167;29;20445;-88
2021/03/17 12:27:47;;;;;;;3.37;3.00;;;6.00;99.90;;;;;;4863495;29;20465;-88
2021/03/17 12:30:19;;;;;;;4.80;3.93;;;6.10;99.90;;;;;;4862898;29;20510;-88
2021/03/17 12:32:46;;;;;;;3.60;3.30;;;6.30;99.90;;;;;;4865607;29;20487;-89
2021/03/17 12:35:14;;;;;;;6.03;4.13;;;6.40;99.90;;;;;;4863185;29;20444;-89
2021/03/17 12:37:42;;;;;;;5.57;4.10;;;6.70;99.90;;;;;;4865887;29;20487;-87
2021/03/17 12:40:10;;;;;;;6.50;5.03;;;6.80;99.90;;;;;;4863254;29;20855;-86
2021/03/17 12:42:39;;;;;;;6.33;4.87;;;6.60;99.90;;;;;;4862721;29;20776;-84
2021/03/17 12:45:06;;;;;;;6.00;5.20;;;6.00;99.90;;;;;;4865440;29;20739;-83
2021/03/17 12:47:32;;;;;;;6.13;5.33;;;5.60;99.90;;;;;;4857871;29;20457;-83
2021/03/17 12:49:58;;;;;;;7.70;4.70;;;5.40;99.90;;;;;;4862041;29;20815;-83
2021/03/17 12:52:24;;;;;;;6.73;5.60;;;5.40;99.90;;;;;;4878597;29;20213;-83
2021/03/17 12:54:49;;;;;;;5.87;5.23;;;5.10;99.90;;;;;;4864672;29;20220;-83
2021/03/17 12:57:15;;;;;;;9.30;6.93;;;5.30;99.90;;;;;;4858820;29;20245;-84
2021/03/17 12:59:41;;;;;;;7.10;5.37;;;5.40;99.90;;;;;;4865265;29;20205;-84
2021/03/17 13:02:07;;;;;;;8.73;5.90;;;5.40;99.90;;;;;;4861839;29;20214;-83
2021/03/17 13:04:33;;;;;;;8.57;6.43;;;5.60;99.90;;;;;;4865674;29;20567;-83
2021/03/17 13:06:59;;;;;;;8.97;6.87;;;5.60;99.90;;;;;;4863391;29;20466;-83
2021/03/17 13:09:24;;;;;;;10.00;6.70;;;5.80;99.90;;;;;;4863518;29;20473;-83
2021/03/17 13:11:50;;;;;;;8.23;6.40;;;5.90;99.90;;;;;;4864735;29;20941;-83
2021/03/17 13:14:16;;;;;;;9.83;7.70;;;5.90;99.90;;;;;;4862630;29;20201;-84
2021/03/17 13:16:42;;;;;;;7.90;6.40;;;5.70;99.90;;;;;;4865886;29;20216;-83
2021/03/17 13:19:07;;;;;;;7.80;7.00;;;5.60;99.90;;;;;;4866456;29;20201;-84
2021/03/17 13:21:34;;;;;;;8.60;7.00;;;5.50;99.90;;;;;;4883350;29;20306;-85
2021/03/17 13:24:00;;;;;;;8.73;6.97;;;5.30;99.90;;;;;;4865781;29;20204;-84
2021/03/17 13:26:26;;;;;;;9.37;6.47;;;5.10;99.90;;;;;;4865481;29;20433;-85
2021/03/17 13:28:52;;;;;;;10.90;6.80;;;5.10;99.90;;;;;;4867631;29;20452;-84
2021/03/17 13:31:18;;;;;;;8.77;6.90;;;5.10;99.90;;;;;;4866200;29;20216;-84